Time;durP1;ratioP1;P1;durP2;ratioP2;P2;SDS_P1;SDS_P2;PMS_P1;PMS_P2;Temp;Humidity;BMP_temperature;BMP_pressure;BME280_temperature;BME280_humidity;BME280_pressure;Samples;Min_cycle;Max_cycle;Signal;HPM_P1;HPM_P2
2021/09/26 00:00:54;;;;;;;38.83;30.88;;;17.50;99.90;;;;;;6181445;23;20016;-75
2021/09/26 00:03:20;;;;;;;36.67;32.03;;;17.50;99.90;;;;;;6181408;23;20047;-75
2021/09/26 00:05:45;;;;;;;39.60;31.15;;;17.50;99.90;;;;;;6181653;23;20024;-74
2021/09/26 00:08:11;;;;;;;37.28;30.55;;;17.50;99.90;;;;;;6181464;23;20020;-74
2021/09/26 00:10:37;;;;;;;36.97;30.85;;;17.50;99.90;;;;;;6181561;23;20052;-75
2021/09/26 00:13:04;;;;;;;42.58;31.17;;;17.50;99.90;;;;;;6208674;23;20331;-75
2021/09/26 00:15:30;;;;;;;42.45;31.20;;;17.50;99.90;;;;;;6158699;23;20390;-74
2021/09/26 00:17:56;;;;;;;36.92;31.50;;;17.50;99.90;;;;;;6182671;23;20074;-75
2021/09/26 00:20:23;;;;;;;36.78;29.42;;;17.50;99.90;;;;;;6208536;23;20107;-75
2021/09/26 00:22:49;;;;;;;36.17;29.75;;;17.50;99.90;;;;;;6182319;23;20021;-75
2021/09/26 00:25:16;;;;;;;33.97;28.80;;;17.50;99.90;;;;;;6182651;23;20034;-75
2021/09/26 00:27:42;;;;;;;39.58;32.60;;;17.50;99.90;;;;;;6207216;23;20480;-75
2021/09/26 00:30:10;;;;;;;33.25;26.83;;;17.50;99.90;;;;;;6207493;23;20039;-76
2021/09/26 00:32:36;;;;;;;35.47;28.83;;;17.50;99.90;;;;;;6207119;23;20096;-75
2021/09/26 00:35:03;;;;;;;37.90;31.52;;;17.50;99.90;;;;;;6183703;23;20059;-75
2021/09/26 00:37:30;;;;;;;37.40;29.30;;;17.50;99.90;;;;;;6184730;23;20016;-75
2021/09/26 00:39:56;;;;;;;35.55;28.67;;;17.50;99.90;;;;;;6183874;23;20457;-75
2021/09/26 00:42:21;;;;;;;36.20;30.58;;;17.50;99.90;;;;;;6210108;23;20095;-75
2021/09/26 00:44:47;;;;;;;35.50;30.20;;;17.50;99.90;;;;;;6159626;23;20055;-75
2021/09/26 00:47:14;;;;;;;38.75;31.58;;;17.50;99.90;;;;;;6184906;23;20661;-75
2021/09/26 00:49:39;;;;;;;40.90;31.27;;;17.50;99.90;;;;;;6158571;23;20016;-75
2021/09/26 00:52:05;;;;;;;35.47;29.35;;;17.50;99.90;;;;;;6184005;23;20035;-75
2021/09/26 00:54:32;;;;;;;37.55;29.70;;;17.50;99.90;;;;;;6208646;23;20115;-75
2021/09/26 00:56:57;;;;;;;37.75;31.85;;;17.50;99.90;;;;;;6160350;23;20016;-75
2021/09/26 00:59:23;;;;;;;33.78;28.52;;;17.50;99.90;;;;;;6209963;23;20511;-75
2021/09/26 01:01:50;;;;;;;40.15;31.40;;;17.50;99.90;;;;;;6208507;23;20024;-75
2021/09/26 01:04:17;;;;;;;35.08;29.65;;;17.50;99.90;;;;;;6185317;23;20013;-75
2021/09/26 01:06:58;;;;;;;40.20;30.30;;;17.40;99.90;;;;;;6208267;23;20028;-75
2021/09/26 01:09:36;;;;;;;43.25;32.95;;;17.40;99.90;;;;;;6184650;23;20465;-75
2021/09/26 01:12:31;;;;;;;37.10;30.85;;;17.40;99.90;;;;;;6209829;23;20380;-75
2021/09/26 01:15:03;;;;;;;34.53;29.20;;;17.40;99.90;;;;;;6184511;23;20042;-75
2021/09/26 01:17:57;;;;;;;40.55;31.52;;;17.40;99.90;;;;;;6209561;23;20077;-74
2021/09/26 01:20:48;;;;;;;36.00;29.45;;;17.40;99.90;;;;;;6209777;23;20024;-75
2021/09/26 01:23:40;;;;;;;40.08;31.40;;;17.40;99.90;;;;;;6208788;23;20017;-74
2021/09/26 01:26:09;;;;;;;41.08;31.73;;;17.40;99.90;;;;;;6208418;23;20059;-75
2021/09/26 01:28:56;;;;;;;39.83;33.40;;;17.40;99.90;;;;;;6183274;23;20016;-75
2021/09/26 01:31:30;;;;;;;39.08;30.77;;;17.30;99.90;;;;;;6184856;23;20021;-74
2021/09/26 01:34:02;;;;;;;40.08;31.85;;;17.30;99.90;;;;;;6208725;23;20058;-75
2021/09/26 01:36:43;;;;;;;41.35;34.90;;;17.30;99.90;;;;;;6209689;23;20012;-75
2021/09/26 01:39:24;;;;;;;46.33;35.50;;;17.30;99.90;;;;;;6209624;23;20075;-74
2021/09/26 01:42:04;;;;;;;44.92;33.70;;;17.30;99.90;;;;;;6208772;23;20052;-75
2021/09/26 01:44:53;;;;;;;47.15;35.38;;;17.20;99.90;;;;;;6209159;23;20023;-74
2021/09/26 01:47:25;;;;;;;47.55;36.15;;;17.20;99.90;;;;;;6179760;23;20044;-74
2021/09/26 01:49:55;;;;;;;41.33;32.25;;;17.10;99.90;;;;;;6208809;23;20052;-74
2021/09/26 01:52:26;;;;;;;45.67;36.35;;;17.10;99.90;;;;;;6183648;23;20520;-75
2021/09/26 01:54:51;;;;;;;41.08;34.60;;;17.00;99.90;;;;;;6183535;23;20374;-75
2021/09/26 01:57:20;;;;;;;43.30;34.92;;;17.00;99.90;;;;;;6183840;23;20013;-74
2021/09/26 01:59:57;;;;;;;49.50;36.72;;;16.90;99.90;;;;;;6185540;23;20349;-75
2021/09/26 02:02:25;;;;;;;46.75;34.42;;;16.90;99.90;;;;;;6162555;23;20768;-75
2021/09/26 02:04:53;;;;;;;44.25;35.13;;;16.90;99.90;;;;;;6213843;23;20016;-75
2021/09/26 02:07:20;;;;;;;43.78;34.15;;;16.80;99.90;;;;;;6189801;23;20059;-74
2021/09/26 02:09:47;;;;;;;42.28;35.80;;;16.80;99.90;;;;;;6189454;23;20024;-75
2021/09/26 02:12:15;;;;;;;50.85;38.03;;;16.70;99.90;;;;;;6189953;23;20012;-75
2021/09/26 02:14:44;;;;;;;43.50;35.70;;;16.70;99.90;;;;;;6214762;23;20326;-74
2021/09/26 02:17:11;;;;;;;51.75;37.70;;;16.70;99.90;;;;;;6190775;23;20016;-74
2021/09/26 02:19:38;;;;;;;41.03;33.67;;;16.70;99.90;;;;;;6215044;23;20081;-74
2021/09/26 02:22:06;;;;;;;43.97;34.17;;;16.60;99.90;;;;;;6164394;23;20012;-74
2021/09/26 02:24:37;;;;;;;56.72;40.03;;;16.60;99.90;;;;;;6215400;23;20019;-74
2021/09/26 02:27:03;;;;;;;43.65;33.42;;;16.60;99.90;;;;;;6189838;23;20018;-74
2021/09/26 02:29:29;;;;;;;46.15;35.38;;;16.50;99.90;;;;;;6189679;23;20314;-74
2021/09/26 02:31:55;;;;;;;37.85;30.75;;;16.50;99.90;;;;;;6214097;23;20091;-74
2021/09/26 02:34:20;;;;;;;51.35;37.38;;;16.50;99.90;;;;;;6215126;23;20016;-74
2021/09/26 02:36:46;;;;;;;37.13;30.85;;;16.40;99.90;;;;;;6214656;23;20798;-74
2021/09/26 02:39:15;;;;;;;49.67;39.00;;;16.40;99.90;;;;;;6189769;23;20016;-74
2021/09/26 02:41:49;;;;;;;59.47;42.00;;;16.40;99.90;;;;;;6213286;23;20020;-74
2021/09/26 02:44:32;;;;;;;50.85;40.05;;;16.30;99.90;;;;;;6189358;23;20024;-74
2021/09/26 02:47:07;;;;;;;56.97;42.95;;;16.30;99.90;;;;;;6188654;23;20023;-74
2021/09/26 02:49:33;;;;;;;51.25;39.95;;;16.30;99.90;;;;;;6214158;23;20403;-75
2021/09/26 02:52:00;;;;;;;54.83;42.00;;;16.20;99.90;;;;;;6188428;23;20392;-75
2021/09/26 02:54:34;;;;;;;51.97;41.65;;;16.20;99.90;;;;;;6188943;23;20038;-75
2021/09/26 02:57:00;;;;;;;59.38;44.22;;;16.20;99.90;;;;;;6165554;23;20464;-75
2021/09/26 02:59:26;;;;;;;55.00;41.95;;;16.20;99.90;;;;;;6186917;23;20027;-75
2021/09/26 03:01:53;;;;;;;56.28;41.33;;;16.20;99.90;;;;;;6212876;23;20016;-76
2021/09/26 03:04:20;;;;;;;55.50;42.80;;;16.20;99.90;;;;;;6189195;23;20012;-75
2021/09/26 03:06:46;;;;;;;60.10;45.35;;;16.20;99.90;;;;;;6186754;23;20491;-75
2021/09/26 03:09:12;;;;;;;55.90;43.40;;;16.20;99.90;;;;;;6186961;23;20020;-74
2021/09/26 03:11:38;;;;;;;59.38;44.28;;;16.10;99.90;;;;;;6186863;23;20340;-75
2021/09/26 03:14:04;;;;;;;58.45;43.83;;;16.10;99.90;;;;;;6212531;23;20197;-75
2021/09/26 03:16:30;;;;;;;53.85;41.53;;;16.10;99.90;;;;;;6212832;23;20029;-75
2021/09/26 03:18:56;;;;;;;50.80;39.38;;;16.10;99.90;;;;;;6211831;23;20094;-75
2021/09/26 03:21:22;;;;;;;54.03;40.38;;;16.20;99.90;;;;;;6161801;23;20062;-75
2021/09/26 03:23:48;;;;;;;56.35;40.50;;;16.20;99.90;;;;;;6187854;23;20020;-74
2021/09/26 03:26:14;;;;;;;48.00;38.83;;;16.20;99.90;;;;;;6186524;23;20099;-75
2021/09/26 03:28:40;;;;;;;52.90;42.28;;;16.20;99.90;;;;;;6187023;23;20024;-75
2021/09/26 03:31:05;;;;;;;46.58;39.47;;;16.10;99.90;;;;;;6212145;23;20099;-75
2021/09/26 03:33:34;;;;;;;48.33;38.53;;;16.10;99.90;;;;;;6187383;23;20077;-75
2021/09/26 03:36:00;;;;;;;50.10;39.08;;;16.10;99.90;;;;;;6162693;23;20087;-75
2021/09/26 03:38:26;;;;;;;51.90;39.08;;;16.20;99.90;;;;;;6212653;23;20048;-75
2021/09/26 03:40:52;;;;;;;49.42;39.28;;;16.10;99.90;;;;;;6213060;23;20043;-75
2021/09/26 03:43:17;;;;;;;47.15;38.75;;;16.10;99.90;;;;;;6213079;23;20508;-75
2021/09/26 03:45:49;;;;;;;45.70;36.85;;;16.00;99.90;;;;;;6187951;23;20019;-75
2021/09/26 03:48:19;;;;;;;50.90;38.45;;;16.00;99.90;;;;;;6189314;23;20339;-74
2021/09/26 03:50:47;;;;;;;47.90;39.42;;;15.90;99.90;;;;;;6188361;23;20465;-74
2021/09/26 03:53:12;;;;;;;38.72;31.13;;;15.90;99.90;;;;;;6212049;23;20070;-75
2021/09/26 03:55:38;;;;;;;41.97;34.70;;;15.90;99.90;;;;;;6163036;23;20445;-75
2021/09/26 03:58:04;;;;;;;43.28;36.25;;;15.80;99.90;;;;;;6163228;23;20555;-75
2021/09/26 04:00:30;;;;;;;43.58;35.80;;;15.70;99.90;;;;;;6211303;23;20024;-75
2021/09/26 04:02:56;;;;;;;52.33;39.95;;;15.70;99.90;;;;;;6163008;23;20092;-75
2021/09/26 04:05:21;;;;;;;53.30;40.08;;;15.70;99.90;;;;;;6188585;23;20042;-75
2021/09/26 04:07:47;;;;;;;59.90;44.10;;;15.70;99.90;;;;;;6163548;23;20027;-74
2021/09/26 04:10:14;;;;;;;53.88;41.10;;;15.70;99.90;;;;;;6163763;23;20017;-75
2021/09/26 04:12:40;;;;;;;51.80;39.65;;;15.60;99.90;;;;;;6189868;23;20071;-74
2021/09/26 04:15:08;;;;;;;60.42;43.20;;;15.60;99.90;;;;;;6214094;23;20505;-75
2021/09/26 04:17:34;;;;;;;58.65;42.65;;;15.60;99.90;;;;;;6189430;23;20443;-75
2021/09/26 04:20:07;;;;;;;64.90;46.38;;;15.60;99.90;;;;;;6188614;23;20012;-75
2021/09/26 04:22:34;;;;;;;62.38;45.40;;;15.60;99.90;;;;;;6188914;23;20016;-75
2021/09/26 04:25:00;;;;;;;63.35;46.13;;;15.60;99.90;;;;;;6189326;23;20016;-75
2021/09/26 04:27:26;;;;;;;65.43;47.85;;;15.60;99.90;;;;;;6188744;23;20020;-75
2021/09/26 04:29:53;;;;;;;58.58;42.35;;;15.50;99.90;;;;;;6188344;23;20020;-76
2021/09/26 04:32:19;;;;;;;61.28;43.83;;;15.50;99.90;;;;;;6213452;23;20047;-75
2021/09/26 04:34:48;;;;;;;64.20;45.53;;;15.50;99.90;;;;;;6214282;23;20020;-75
2021/09/26 04:37:14;;;;;;;71.35;48.17;;;15.50;99.90;;;;;;6212992;23;20012;-75
2021/09/26 04:39:40;;;;;;;62.83;45.03;;;15.50;99.90;;;;;;6214008;23;20518;-76
2021/09/26 04:42:09;;;;;;;58.33;43.55;;;15.40;99.90;;;;;;6213632;23;20074;-75
2021/09/26 04:44:35;;;;;;;61.97;45.67;;;15.40;99.90;;;;;;6239214;22;20024;-76
2021/09/26 04:47:07;;;;;;;63.33;45.13;;;15.40;99.90;;;;;;6213929;23;20020;-75
2021/09/26 04:49:33;;;;;;;61.38;44.58;;;15.30;99.90;;;;;;6213670;23;20393;-76
2021/09/26 04:52:00;;;;;;;61.60;44.83;;;15.30;99.90;;;;;;6213650;23;20067;-76
2021/09/26 04:54:26;;;;;;;66.35;46.42;;;15.20;99.90;;;;;;6188310;23;20024;-76
2021/09/26 04:56:53;;;;;;;54.08;40.78;;;15.20;99.90;;;;;;6213447;23;20016;-75
2021/09/26 04:59:21;;;;;;;61.38;44.45;;;15.20;99.90;;;;;;6213251;23;20082;-75
2021/09/26 05:01:48;;;;;;;59.88;43.80;;;15.20;99.90;;;;;;6212969;23;20022;-75
2021/09/26 05:04:14;;;;;;;62.63;43.83;;;15.10;99.90;;;;;;6188278;23;20095;-76
2021/09/26 05:06:40;;;;;;;50.78;39.55;;;15.10;99.90;;;;;;6188828;23;20464;-76
2021/09/26 05:09:06;;;;;;;53.22;40.60;;;15.10;99.90;;;;;;6188007;23;20016;-76
2021/09/26 05:11:34;;;;;;;55.63;40.90;;;15.10;99.90;;;;;;6162803;23;20023;-76
2021/09/26 05:14:00;;;;;;;49.95;38.38;;;15.10;99.90;;;;;;6213929;23;20012;-75
2021/09/26 05:16:27;;;;;;;54.75;40.13;;;15.00;99.90;;;;;;6188385;23;20018;-76
2021/09/26 05:18:52;;;;;;;51.78;38.90;;;15.00;99.90;;;;;;6164055;23;20016;-76
2021/09/26 05:21:18;;;;;;;53.50;39.72;;;15.00;99.90;;;;;;6164618;23;20023;-76
2021/09/26 05:23:44;;;;;;;53.78;39.58;;;15.00;99.90;;;;;;6189671;23;20399;-76
2021/09/26 05:26:13;;;;;;;49.85;36.90;;;14.90;99.90;;;;;;6166137;23;20099;-76
2021/09/26 05:28:39;;;;;;;52.20;39.70;;;14.90;99.90;;;;;;6215182;23;20016;-75
2021/09/26 05:31:04;;;;;;;49.88;38.80;;;14.90;99.90;;;;;;6189148;23;20024;-76
2021/09/26 05:33:34;;;;;;;51.28;39.58;;;14.90;99.90;;;;;;6164785;23;20020;-76
2021/09/26 05:36:00;;;;;;;57.05;40.72;;;14.80;99.90;;;;;;6189785;23;20021;-76
2021/09/26 05:38:26;;;;;;;53.15;39.78;;;14.80;99.90;;;;;;6190072;23;20020;-76
2021/09/26 05:40:52;;;;;;;45.45;35.78;;;14.80;99.90;;;;;;6214510;23;20046;-76
2021/09/26 05:43:17;;;;;;;47.17;36.47;;;14.80;99.90;;;;;;6214844;23;20016;-76
2021/09/26 05:45:43;;;;;;;48.22;37.72;;;14.80;99.90;;;;;;6214958;23;20020;-75
2021/09/26 05:48:09;;;;;;;47.55;36.25;;;14.80;99.90;;;;;;6215313;23;20020;-76
2021/09/26 05:50:35;;;;;;;46.00;36.47;;;14.80;99.90;;;;;;6165059;23;20101;-75
2021/09/26 05:53:04;;;;;;;47.42;35.85;;;14.90;99.90;;;;;;6164322;23;20391;-76
2021/09/26 05:55:29;;;;;;;46.38;34.95;;;14.90;99.90;;;;;;6189733;23;20016;-76
2021/09/26 05:57:55;;;;;;;47.30;35.10;;;14.90;99.90;;;;;;6189966;23;20013;-76
2021/09/26 06:00:24;;;;;;;45.10;35.25;;;14.90;99.90;;;;;;6214039;23;20133;-75
2021/09/26 06:02:50;;;;;;;47.92;36.53;;;14.90;99.90;;;;;;6214390;23;20020;-76
2021/09/26 06:05:16;;;;;;;44.22;33.05;;;14.90;99.90;;;;;;6190228;23;20027;-75
2021/09/26 06:07:42;;;;;;;41.65;33.78;;;14.80;99.90;;;;;;6164950;23;20016;-76
2021/09/26 06:10:08;;;;;;;44.08;34.47;;;14.80;99.90;;;;;;6164967;23;20016;-75
2021/09/26 06:12:34;;;;;;;41.55;33.35;;;14.80;99.90;;;;;;6189778;23;20023;-75
2021/09/26 06:15:00;;;;;;;39.85;32.97;;;14.80;99.90;;;;;;6213241;23;20020;-76
2021/09/26 06:17:26;;;;;;;38.72;30.33;;;14.80;99.90;;;;;;6213883;23;20083;-75
2021/09/26 06:19:52;;;;;;;41.85;32.15;;;14.90;99.90;;;;;;6188805;23;20027;-75
2021/09/26 06:22:26;;;;;;;38.33;31.05;;;14.90;99.90;;;;;;6188833;23;20016;-75
2021/09/26 06:24:53;;;;;;;40.25;31.58;;;14.90;99.90;;;;;;6164744;23;20443;-76
2021/09/26 06:27:23;;;;;;;43.63;32.60;;;14.90;99.90;;;;;;6190015;23;20027;-76
2021/09/26 06:29:48;;;;;;;42.42;32.60;;;14.90;99.90;;;;;;6213440;23;20024;-75
2021/09/26 06:32:14;;;;;;;39.17;29.42;;;14.90;99.90;;;;;;6213446;23;20016;-75
2021/09/26 06:34:40;;;;;;;42.58;33.38;;;15.00;99.90;;;;;;6189027;23;20391;-75
2021/09/26 06:37:06;;;;;;;35.70;29.55;;;15.00;99.90;;;;;;6189300;23;20016;-75
2021/09/26 06:39:33;;;;;;;37.92;27.92;;;15.00;99.90;;;;;;6164332;23;20016;-75
2021/09/26 06:41:59;;;;;;;35.67;29.15;;;15.00;99.90;;;;;;6163755;23;20024;-76
2021/09/26 06:44:25;;;;;;;35.72;27.25;;;15.00;99.90;;;;;;6189195;23;20107;-75
2021/09/26 06:46:52;;;;;;;33.90;27.52;;;15.00;99.90;;;;;;6213414;23;20466;-75
2021/09/26 06:49:18;;;;;;;36.50;31.38;;;15.10;99.90;;;;;;6213706;23;20020;-74
2021/09/26 06:51:43;;;;;;;32.58;28.95;;;15.10;99.90;;;;;;6162762;23;20020;-75
2021/09/26 06:54:10;;;;;;;31.70;27.08;;;15.20;99.90;;;;;;6189333;23;20020;-75
2021/09/26 06:56:35;;;;;;;38.47;30.02;;;15.20;99.90;;;;;;6212956;23;20452;-75
2021/09/26 06:59:04;;;;;;;31.60;27.60;;;15.20;99.90;;;;;;6213549;23;20016;-76
2021/09/26 07:01:32;;;;;;;36.80;29.77;;;15.20;99.90;;;;;;6212853;23;20074;-76
2021/09/26 07:03:59;;;;;;;35.67;29.23;;;15.30;99.90;;;;;;6188797;23;20051;-75
2021/09/26 07:06:26;;;;;;;32.15;27.52;;;15.40;99.90;;;;;;6213045;23;20028;-76
2021/09/26 07:08:52;;;;;;;30.17;26.90;;;15.40;99.90;;;;;;6212823;23;20531;-76
2021/09/26 07:11:20;;;;;;;28.58;24.88;;;15.50;99.90;;;;;;6212406;23;20051;-76
2021/09/26 07:13:46;;;;;;;27.77;24.75;;;15.60;99.90;;;;;;6210195;23;20110;-76
2021/09/26 07:16:12;;;;;;;31.38;27.10;;;15.60;99.90;;;;;;6185865;23;20012;-75
2021/09/26 07:18:38;;;;;;;30.15;26.85;;;15.80;99.90;;;;;;6211603;23;20051;-75
2021/09/26 07:21:04;;;;;;;28.15;24.17;;;15.90;99.90;;;;;;6186871;23;20027;-75
2021/09/26 07:23:30;;;;;;;25.85;22.80;;;16.00;99.90;;;;;;6212085;23;20016;-75
2021/09/26 07:25:56;;;;;;;26.23;22.67;;;16.10;99.90;;;;;;6185177;23;20069;-75
2021/09/26 07:28:22;;;;;;;26.90;24.10;;;16.20;99.90;;;;;;6161403;23;20028;-75
2021/09/26 07:30:48;;;;;;;24.10;21.58;;;16.20;99.90;;;;;;6184979;23;20292;-75
2021/09/26 07:33:14;;;;;;;24.10;21.52;;;16.20;99.90;;;;;;6186014;23;20027;-75
2021/09/26 07:35:41;;;;;;;24.50;21.83;;;16.20;99.90;;;;;;6162576;23;20020;-74
2021/09/26 07:38:06;;;;;;;26.58;23.13;;;16.20;99.90;;;;;;6187913;23;20019;-75
2021/09/26 07:40:32;;;;;;;23.63;20.50;;;16.30;99.90;;;;;;6213130;23;20099;-75
2021/09/26 07:42:58;;;;;;;24.83;21.67;;;16.50;99.90;;;;;;6187092;23;20098;-75
2021/09/26 07:45:24;;;;;;;24.48;21.88;;;16.70;99.90;;;;;;6212014;23;20016;-75
2021/09/26 07:47:50;;;;;;;24.58;22.00;;;16.90;99.90;;;;;;6210664;23;20785;-74
2021/09/26 07:50:16;;;;;;;22.80;20.40;;;17.10;99.90;;;;;;6186585;23;20326;-74
2021/09/26 07:52:42;;;;;;;21.27;19.00;;;17.30;99.90;;;;;;6210940;23;20016;-75
2021/09/26 07:55:08;;;;;;;20.23;18.15;;;17.50;99.90;;;;;;6160866;23;20099;-74
2021/09/26 07:57:34;;;;;;;19.33;17.15;;;17.70;99.90;;;;;;6213232;23;20130;-74
2021/09/26 08:00:00;;;;;;;20.88;18.67;;;17.90;99.90;;;;;;6182341;23;20464;-74
2021/09/26 08:02:26;;;;;;;19.60;17.58;;;18.10;99.90;;;;;;6207393;23;20021;-74
2021/09/26 08:04:52;;;;;;;18.15;15.70;;;18.20;99.90;;;;;;6182545;23;20527;-74
2021/09/26 08:07:18;;;;;;;21.10;19.10;;;18.20;99.90;;;;;;6202841;23;20024;-76
2021/09/26 08:09:44;;;;;;;19.98;17.83;;;18.30;99.90;;;;;;6178237;23;20017;-75
2021/09/26 08:12:10;;;;;;;20.05;17.85;;;18.30;99.90;;;;;;6181058;23;20024;-75
2021/09/26 08:14:35;;;;;;;20.27;18.08;;;18.50;99.90;;;;;;6206757;23;20532;-74
2021/09/26 08:17:02;;;;;;;21.30;19.08;;;18.60;99.90;;;;;;6207646;23;20051;-75
2021/09/26 08:19:28;;;;;;;19.52;17.52;;;18.70;99.90;;;;;;6158297;23;20051;-75
2021/09/26 08:21:54;;;;;;;18.45;16.55;;;18.80;99.90;;;;;;6179269;23;20017;-75
2021/09/26 08:24:20;;;;;;;18.75;16.85;;;18.70;99.90;;;;;;6206814;23;20027;-75
2021/09/26 08:26:46;;;;;;;20.42;18.08;;;18.60;99.90;;;;;;6206787;23;20392;-75
2021/09/26 08:29:12;;;;;;;20.02;17.33;;;18.50;99.90;;;;;;6181598;23;20099;-76
2021/09/26 08:31:38;;;;;;;21.08;18.90;;;18.40;99.90;;;;;;6182046;23;20017;-76
2021/09/26 08:34:03;;;;;;;19.80;17.77;;;18.40;99.90;;;;;;6207479;23;20027;-76
2021/09/26 08:36:30;;;;;;;20.30;18.10;;;18.30;99.90;;;;;;6183367;23;20025;-76
2021/09/26 08:38:56;;;;;;;20.90;17.90;;;18.10;99.90;;;;;;6208271;23;20071;-76
2021/09/26 08:41:22;;;;;;;19.23;17.13;;;18.00;99.90;;;;;;6183804;23;20021;-76
2021/09/26 08:43:49;;;;;;;18.75;16.80;;;17.90;99.90;;;;;;6182651;23;20071;-76
2021/09/26 08:46:17;;;;;;;22.83;19.27;;;17.80;99.90;;;;;;6184074;23;20016;-76
2021/09/26 08:48:44;;;;;;;20.73;18.63;;;17.70;99.90;;;;;;6207577;23;20027;-76
2021/09/26 08:51:12;;;;;;;21.55;19.45;;;17.70;99.90;;;;;;6182932;23;20013;-75
2021/09/26 08:53:39;;;;;;;18.08;16.15;;;17.60;99.90;;;;;;6183981;23;20036;-75
2021/09/26 08:56:05;;;;;;;22.73;19.15;;;17.60;99.90;;;;;;6157854;23;20021;-76
2021/09/26 08:58:31;;;;;;;20.50;18.40;;;17.60;99.90;;;;;;6183912;23;20675;-76
2021/09/26 09:01:00;;;;;;;21.42;18.42;;;17.60;99.90;;;;;;6184369;23;20024;-75
2021/09/26 09:03:25;;;;;;;19.77;17.67;;;17.60;99.90;;;;;;6185178;23;20103;-76
2021/09/26 09:05:55;;;;;;;20.50;18.40;;;17.60;99.90;;;;;;6159379;23;20056;-76
2021/09/26 09:08:25;;;;;;;21.98;17.83;;;17.60;99.90;;;;;;6184869;23;20389;-76
2021/09/26 09:10:58;;;;;;;21.80;19.42;;;17.70;99.90;;;;;;6209053;23;20020;-76
2021/09/26 09:13:31;;;;;;;20.52;18.52;;;17.70;99.90;;;;;;6185416;23;20682;-76
2021/09/26 09:16:00;;;;;;;19.83;17.73;;;17.70;99.90;;;;;;6207222;23;20017;-76
2021/09/26 09:18:43;;;;;;;20.20;18.08;;;17.60;99.90;;;;;;6184891;23;20028;-75
2021/09/26 09:21:23;;;;;;;20.95;18.73;;;17.60;99.90;;;;;;6184979;23;20051;-76
2021/09/26 09:23:53;;;;;;;21.13;18.95;;;17.60;99.90;;;;;;6209892;23;20349;-75
2021/09/26 09:26:51;;;;;;;23.30;19.47;;;17.50;99.90;;;;;;6184919;23;20027;-76
2021/09/26 09:29:19;;;;;;;22.45;20.05;;;17.50;99.90;;;;;;6192569;23;20017;-76
2021/09/26 09:31:54;;;;;;;22.60;20.20;;;17.50;99.90;;;;;;6210028;23;20384;-76
2021/09/26 09:34:34;;;;;;;21.98;19.60;;;17.50;99.90;;;;;;6183946;23;20024;-76
2021/09/26 09:37:18;;;;;;;24.27;19.33;;;17.50;99.90;;;;;;6183400;23;20016;-76
2021/09/26 09:40:16;;;;;;;25.15;20.33;;;17.50;99.90;;;;;;6208522;23;20032;-76
2021/09/26 09:42:47;;;;;;;21.77;19.40;;;17.60;99.90;;;;;;6184795;23;20017;-76
2021/09/26 09:45:23;;;;;;;20.75;18.15;;;17.70;99.90;;;;;;6209544;23;20099;-76
2021/09/26 09:48:09;;;;;;;21.65;19.50;;;17.80;99.90;;;;;;6209473;23;20480;-75
2021/09/26 09:50:40;;;;;;;20.42;18.25;;;17.80;99.90;;;;;;6209974;23;20074;-75
2021/09/26 09:53:07;;;;;;;19.90;17.80;;;17.90;99.90;;;;;;6208831;23;20021;-75
2021/09/26 09:55:36;;;;;;;21.42;17.25;;;18.00;99.90;;;;;;6209367;23;20024;-75
2021/09/26 09:58:18;;;;;;;20.00;17.30;;;18.00;99.90;;;;;;6208040;23;20048;-75
2021/09/26 10:00:56;;;;;;;21.45;18.17;;;18.10;99.90;;;;;;6184704;23;20012;-75
2021/09/26 10:03:43;;;;;;;20.67;17.77;;;18.30;99.90;;;;;;6208489;23;20031;-75
2021/09/26 10:06:27;;;;;;;18.73;16.73;;;18.50;99.90;;;;;;6208717;23;20027;-75
2021/09/26 10:08:55;;;;;;;20.52;17.55;;;18.80;99.90;;;;;;6206879;23;20031;-76
2021/09/26 10:11:21;;;;;;;19.67;17.00;;;19.00;99.90;;;;;;6159940;23;20571;-75
2021/09/26 10:13:47;;;;;;;21.33;17.08;;;19.10;99.90;;;;;;6210103;23;20020;-76
2021/09/26 10:16:14;;;;;;;20.00;16.52;;;19.20;99.90;;;;;;6184515;23;20020;-74
2021/09/26 10:18:43;;;;;;;19.25;16.67;;;19.30;99.90;;;;;;6185105;23;20461;-75
2021/09/26 10:21:12;;;;;;;19.00;16.88;;;19.50;99.90;;;;;;6184557;23;20257;-75
2021/09/26 10:23:41;;;;;;;19.13;17.08;;;19.60;99.90;;;;;;6184942;23;20107;-76
2021/09/26 10:26:08;;;;;;;18.52;16.58;;;19.70;99.90;;;;;;6210139;23;20401;-75
2021/09/26 10:28:35;;;;;;;19.42;16.52;;;19.90;99.90;;;;;;6209417;23;20090;-75
2021/09/26 10:31:04;;;;;;;18.30;15.82;;;19.90;99.90;;;;;;6184368;23;20527;-75
2021/09/26 10:33:32;;;;;;;18.08;16.00;;;20.10;99.90;;;;;;6208680;23;20017;-75
2021/09/26 10:35:59;;;;;;;17.65;15.85;;;20.10;99.90;;;;;;6209737;23;20020;-74
2021/09/26 10:38:27;;;;;;;16.10;14.40;;;20.20;99.90;;;;;;6185957;23;20074;-76
2021/09/26 10:40:53;;;;;;;19.88;15.98;;;20.30;99.90;;;;;;6184626;23;20349;-75
2021/09/26 10:43:28;;;;;;;17.65;15.85;;;20.50;99.90;;;;;;6209151;23;20047;-76
2021/09/26 10:46:21;;;;;;;17.38;15.55;;;20.60;99.90;;;;;;6208318;23;20471;-76
2021/09/26 10:48:56;;;;;;;18.77;15.40;;;20.90;99.90;;;;;;6181563;23;20099;-75
2021/09/26 10:51:43;;;;;;;18.42;16.45;;;21.00;99.90;;;;;;6184166;23;20024;-74
2021/09/26 10:54:22;;;;;;;18.02;16.13;;;20.90;99.90;;;;;;6181684;23;20471;-74
2021/09/26 10:57:12;;;;;;;16.92;14.50;;;20.80;99.90;;;;;;6206446;23;20016;-75
2021/09/26 10:59:42;;;;;;;18.60;15.57;;;20.80;99.90;;;;;;6206339;23;20020;-75
2021/09/26 11:02:23;;;;;;;17.55;15.00;;;20.60;99.90;;;;;;6182100;23;20100;-75
2021/09/26 11:04:50;;;;;;;17.95;16.02;;;20.60;99.90;;;;;;6209371;23;20012;-75
2021/09/26 11:07:21;;;;;;;19.08;16.15;;;20.50;99.90;;;;;;6183623;23;20017;-75
2021/09/26 11:09:54;;;;;;;17.95;16.15;;;20.50;99.90;;;;;;6209618;23;20095;-75
2021/09/26 11:12:38;;;;;;;18.15;16.23;;;20.50;99.90;;;;;;6184703;23;20024;-75
2021/09/26 11:15:09;;;;;;;20.38;17.27;;;20.50;99.90;;;;;;6182089;23;20119;-75
2021/09/26 11:18:01;;;;;;;18.67;16.77;;;20.60;99.90;;;;;;6183311;23;20020;-75
2021/09/26 11:20:30;;;;;;;19.02;16.95;;;20.60;99.90;;;;;;6179042;23;20012;-75
2021/09/26 11:23:05;;;;;;;20.75;17.05;;;20.50;99.90;;;;;;6207592;23;20017;-75
2021/09/26 11:25:56;;;;;;;17.08;15.38;;;20.50;99.90;;;;;;6184209;23;20056;-75
2021/09/26 11:28:40;;;;;;;18.25;15.95;;;20.60;99.90;;;;;;6182623;23;20020;-75
2021/09/26 11:31:11;;;;;;;18.95;16.95;;;20.60;99.90;;;;;;6182725;23;20095;-75
2021/09/26 11:33:57;;;;;;;18.63;16.38;;;20.60;99.90;;;;;;6182915;23;20016;-75
2021/09/26 11:36:25;;;;;;;18.88;16.85;;;20.60;99.90;;;;;;6207979;23;20606;-75
2021/09/26 11:38:51;;;;;;;19.83;17.73;;;20.70;99.90;;;;;;6208237;23;20012;-75
2021/09/26 11:41:36;;;;;;;20.58;18.48;;;20.80;99.90;;;;;;6183126;23;20453;-75
2021/09/26 11:44:07;;;;;;;19.67;17.58;;;20.80;99.90;;;;;;6206832;23;20107;-75
2021/09/26 11:46:34;;;;;;;20.08;17.98;;;20.80;99.90;;;;;;6207293;23;20024;-75
2021/09/26 11:49:04;;;;;;;17.90;16.10;;;20.90;99.90;;;;;;6181594;23;20036;-75
2021/09/26 11:51:31;;;;;;;19.80;17.70;;;20.90;99.90;;;;;;6182455;23;20357;-75
2021/09/26 11:53:58;;;;;;;18.67;16.88;;;21.00;99.90;;;;;;6207189;23;20027;-74
2021/09/26 11:56:27;;;;;;;18.27;16.45;;;21.20;99.90;;;;;;6181279;23;20012;-75
2021/09/26 11:59:04;;;;;;;18.42;16.52;;;21.20;99.90;;;;;;6182341;23;20023;-75
2021/09/26 12:01:36;;;;;;;18.33;16.42;;;21.20;99.90;;;;;;6182235;23;20067;-75
2021/09/26 12:04:14;;;;;;;19.20;16.95;;;21.30;99.90;;;;;;6181592;23;20024;-75
2021/09/26 12:06:44;;;;;;;19.23;15.77;;;21.30;99.90;;;;;;6186005;23;20071;-75
2021/09/26 12:09:17;;;;;;;17.73;15.98;;;21.30;99.90;;;;;;6181950;23;20024;-75
2021/09/26 12:11:47;;;;;;;17.67;15.98;;;21.30;99.90;;;;;;6208361;23;20086;-75
2021/09/26 12:14:21;;;;;;;17.95;16.05;;;21.30;99.90;;;;;;6183426;23;20187;-75
2021/09/26 12:16:47;;;;;;;18.67;15.27;;;21.30;99.90;;;;;;6209251;23;20021;-75
2021/09/26 12:19:13;;;;;;;18.45;15.82;;;21.30;99.90;;;;;;6183315;23;20319;-76
2021/09/26 12:21:38;;;;;;;18.02;16.13;;;21.30;99.90;;;;;;6181284;23;20031;-76
2021/09/26 12:24:10;;;;;;;15.40;13.80;;;21.30;99.90;;;;;;6182051;23;20016;-75
2021/09/26 12:26:45;;;;;;;17.50;15.73;;;21.40;99.90;;;;;;6181096;23;20104;-75
2021/09/26 12:29:21;;;;;;;16.67;14.98;;;21.50;99.90;;;;;;6207324;23;20043;-75
2021/09/26 12:31:54;;;;;;;16.65;14.45;;;21.60;99.90;;;;;;6182596;23;20071;-75
2021/09/26 12:34:40;;;;;;;16.02;14.35;;;21.80;99.90;;;;;;6208131;23;20013;-75
2021/09/26 12:37:18;;;;;;;15.23;13.70;;;21.90;99.90;;;;;;6182963;23;20020;-75
2021/09/26 12:39:47;;;;;;;15.30;13.73;;;21.90;99.50;;;;;;6183405;23;20099;-75